Rachel Carson — WDF9370 — position and weather

sailwx.info

Track history (hours):
 
Tides and Currents Weather Stations Pressure Air Temp Water Temp Dewpoint Dewpoint Depression Visibility Wind Speed Wind Dir Waves Ship Positions

Oceanographic research ship Rachel Carson (USA)

Owner: Monterey Bay Aquarium Research Institute, Moss Landing, CA. More information available from US FCC via Universal Licensing System and Coast Guard Vessel Documentation Center.

Last reported at 2017-Jul-24 20:24 UTC. Time now 2017-Jul-27 16:58 UTC.
Position N 36°45' W 122°00'.

Length 42 m; draft 3 m.

Type: Dredging. MMSI: 338415000.

Date/timePositionNaut miles runAvg speedWind from/ knotsBaromVisibWave heightAir tempDewpointWater temp
2017-Jul-24 20:24N 36°45' W 122°00'4 9.6
2017-Jul-24 20:00N 36°44' W 122°05'5 9.3
2017-Jul-24 19:30N 36°43' W 122°11'0 0.6
2017-Jul-24 19:00N 36°42' W 122°11'0 0.4
2017-Jul-24 18:27N 36°42' W 122°11'0 0.1
2017-Jul-24 18:00N 36°42' W 122°11'0 0.3
2017-Jul-24 17:30N 36°43' W 122°11'0 0.4
2017-Jul-24 17:00N 36°42' W 122°11'2 4.1
2017-Jul-24 16:30N 36°43' W 122°09'  
2017-Jul-19 21:19N 36°45' W 122°03'310.2
2017-Jul-19 21:00N 36°44' W 122°07'510.0
2017-Jul-19 20:30N 36°43' W 122°13'5 9.6
2017-Jul-19 19:58N 36°42' W 122°19'3 6.6
2017-Jul-19 19:30N 36°41' W 122°23'0 0.5
2017-Jul-19 19:00N 36°42' W 122°23'3 5.5
2017-Jul-19 18:31N 36°42' W 122°19'5 9.4
2017-Jul-19 17:58N 36°43' W 122°13'4 9.3
2017-Jul-19 17:30N 36°44' W 122°08'5 9.3
2017-Jul-19 17:00N 36°45' W 122°02'1 1.2
2017-Jul-19 16:21N 36°45' W 122°01'  
Track history (hours):
 
Tides and Currents Weather Stations Pressure Air Temp Water Temp Dewpoint Dewpoint Depression Visibility Wind Speed Wind Dir Waves Ship Positions

Oceanographic research ship Rachel Carson (USA)

Owner: Monterey Bay Aquarium Research Institute, Moss Landing, CA. More information available from US FCC via Universal Licensing System and Coast Guard Vessel Documentation Center.

Last reported at 2017-Jul-24 20:24 UTC. Time now 2017-Jul-27 16:58 UTC.
Position N 36°45' W 122°00'.

Length 42 m; draft 3 m.

Type: Dredging. MMSI: 338415000.

Date/timePositionNaut miles runAvg speedWind from/ knotsBaromVisibWave heightAir tempDewpointWater temp
2017-Jul-24 20:24N 36°45' W 122°00'4 9.6
2017-Jul-24 20:00N 36°44' W 122°05'5 9.3
2017-Jul-24 19:30N 36°43' W 122°11'0 0.6
2017-Jul-24 19:00N 36°42' W 122°11'0 0.4
2017-Jul-24 18:27N 36°42' W 122°11'0 0.1
2017-Jul-24 18:00N 36°42' W 122°11'0 0.3
2017-Jul-24 17:30N 36°43' W 122°11'0 0.4
2017-Jul-24 17:00N 36°42' W 122°11'2 4.1
2017-Jul-24 16:30N 36°43' W 122°09'  
2017-Jul-19 21:19N 36°45' W 122°03'310.2
2017-Jul-19 21:00N 36°44' W 122°07'510.0
2017-Jul-19 20:30N 36°43' W 122°13'5 9.6
2017-Jul-19 19:58N 36°42' W 122°19'3 6.6
2017-Jul-19 19:30N 36°41' W 122°23'0 0.5
2017-Jul-19 19:00N 36°42' W 122°23'3 5.5
2017-Jul-19 18:31N 36°42' W 122°19'5 9.4
2017-Jul-19 17:58N 36°43' W 122°13'4 9.3
2017-Jul-19 17:30N 36°44' W 122°08'5 9.3
2017-Jul-19 17:00N 36°45' W 122°02'1 1.2
2017-Jul-19 16:21N 36°45' W 122°01'  

Dump ship's entire track history